Time;durP1;ratioP1;P1;durP2;ratioP2;P2;SDS_P1;SDS_P2;PMS_P1;PMS_P2;Temp;Humidity;BMP_temperature;BMP_pressure;BME280_temperature;BME280_humidity;BME280_pressure;Samples;Min_cycle;Max_cycle;Signal;HPM_P1;HPM_P2
2021/08/08 00:00:20;;;;;;;0.45;0.28;;;;;;;;;;5028944;28;20099;-59
2021/08/08 00:02:48;;;;;;;0.95;0.30;;;;;;;;;;5021835;28;20363;-60
2021/08/08 00:05:17;;;;;;;0.15;0.15;;;;;;;;;;5023014;28;20460;-59
2021/08/08 00:07:45;;;;;;;0.20;0.20;;;;;;;;;;5027238;28;20390;-59
2021/08/08 00:10:14;;;;;;;0.28;0.20;;;;;;;;;;5022971;28;20067;-58
2021/08/08 00:12:44;;;;;;;0.50;0.30;;;;;;;;;;5024813;28;20049;-58
2021/08/08 00:15:13;;;;;;;0.35;0.25;;;;;;;;;;5017588;28;20140;-58
2021/08/08 00:17:42;;;;;;;0.93;0.35;;;;;;;;;;5029429;28;20045;-58
2021/08/08 00:20:11;;;;;;;1.17;0.35;;;;;;;;;;5019876;28;20141;-59
2021/08/08 00:22:40;;;;;;;0.75;0.20;;;;;;;;;;5029515;28;20088;-61
2021/08/08 00:25:09;;;;;;;0.38;0.28;;;;;;;;;;5024170;28;20060;-60
2021/08/08 00:27:38;;;;;;;1.58;0.50;;;;;;;;;;5026165;28;20049;-59
2021/08/08 00:30:09;;;;;;;0.60;0.30;;;;;;;;;;5019079;28;20053;-58
2021/08/08 00:32:37;;;;;;;4.00;0.28;;;;;;;;;;5018567;28;20081;-58
2021/08/08 00:35:06;;;;;;;0.32;0.30;;;;;;;;;;5017864;28;20465;-58
2021/08/08 00:37:34;;;;;;;1.63;0.22;;;;;;;;;;5023416;28;20050;-59
2021/08/08 00:40:03;;;;;;;0.80;0.45;;;;;;;;;;5027277;28;20489;-59
2021/08/08 00:42:31;;;;;;;0.65;0.30;;;;;;;;;;5028104;28;20072;-59
2021/08/08 00:44:59;;;;;;;0.47;0.32;;;;;;;;;;5028895;28;20457;-58
2021/08/08 00:47:29;;;;;;;0.45;0.20;;;;;;;;;;5032432;28;20060;-58
2021/08/08 00:49:57;;;;;;;0.93;0.38;;;;;;;;;;5028245;28;20497;-59
2021/08/08 00:52:26;;;;;;;0.20;0.20;;;;;;;;;;5032315;28;20049;-59
2021/08/08 00:54:54;;;;;;;1.05;0.32;;;;;;;;;;5024102;28;20157;-58
2021/08/08 00:57:22;;;;;;;0.70;0.30;;;;;;;;;;5024716;28;20072;-59
2021/08/08 00:59:50;;;;;;;0.55;0.20;;;;;;;;;;5025435;28;20125;-58
2021/08/08 01:02:20;;;;;;;0.28;0.28;;;;;;;;;;5025978;28;20129;-60
2021/08/08 01:05:02;;;;;;;0.60;0.30;;;;;;;;;;5029580;28;20053;-58
2021/08/08 01:07:33;;;;;;;0.40;0.40;;;;;;;;;;5029824;28;20560;-58
2021/08/08 01:10:03;;;;;;;0.40;0.30;;;;;;;;;;5029601;28;20052;-58
2021/08/08 01:12:31;;;;;;;1.02;0.40;;;;;;;;;;5029224;28;20277;-60
2021/08/08 01:15:00;;;;;;;0.82;0.40;;;;;;;;;;5020299;28;20087;-58
2021/08/08 01:17:28;;;;;;;0.60;0.20;;;;;;;;;;5025007;28;20089;-59
2021/08/08 01:20:00;;;;;;;0.68;0.40;;;;;;;;;;5029041;28;20563;-59
2021/08/08 01:22:29;;;;;;;0.43;0.30;;;;;;;;;;5030991;28;20061;-59
2021/08/08 01:24:59;;;;;;;0.30;0.30;;;;;;;;;;5030792;28;20508;-59
2021/08/08 01:27:28;;;;;;;0.60;0.30;;;;;;;;;;5028284;28;20136;-58
2021/08/08 01:29:57;;;;;;;0.75;0.38;;;;;;;;;;5016399;28;20227;-59
2021/08/08 01:32:25;;;;;;;0.30;0.20;;;;;;;;;;5031863;28;20121;-58
2021/08/08 01:34:54;;;;;;;1.13;0.40;;;;;;;;;;5030097;28;20149;-59
2021/08/08 01:37:22;;;;;;;0.77;0.20;;;;;;;;;;5030441;28;20147;-59
2021/08/08 01:39:54;;;;;;;0.43;0.28;;;;;;;;;;5037983;28;20116;-59
2021/08/08 01:42:24;;;;;;;0.63;0.30;;;;;;;;;;5032169;28;20128;-58
2021/08/08 01:44:53;;;;;;;1.10;0.35;;;;;;;;;;5030495;28;20063;-59
2021/08/08 01:47:25;;;;;;;0.20;0.20;;;;;;;;;;5030508;28;20069;-58
2021/08/08 01:49:54;;;;;;;0.70;0.40;;;;;;;;;;5032432;28;20378;-58
2021/08/08 01:52:22;;;;;;;0.70;0.38;;;;;;;;;;5028241;28;20041;-58
2021/08/08 01:54:51;;;;;;;1.15;0.50;;;;;;;;;;5027123;28;20203;-59
2021/08/08 01:57:20;;;;;;;2.90;0.40;;;;;;;;;;5024694;28;20406;-59
2021/08/08 01:59:49;;;;;;;0.52;0.40;;;;;;;;;;5027495;28;20442;-58
2021/08/08 02:02:18;;;;;;;0.20;0.20;;;;;;;;;;5027098;28;20054;-58
2021/08/08 02:04:47;;;;;;;1.10;0.47;;;;;;;;;;5030262;28;20042;-58
2021/08/08 02:07:16;;;;;;;1.08;0.40;;;;;;;;;;5030880;28;20255;-58
2021/08/08 02:09:44;;;;;;;0.30;0.30;;;;;;;;;;5022814;28;20090;-58
2021/08/08 02:12:13;;;;;;;1.15;0.47;;;;;;;;;;5028437;28;20128;-58
2021/08/08 02:14:41;;;;;;;0.82;0.40;;;;;;;;;;5023182;28;20120;-59
2021/08/08 02:17:11;;;;;;;0.90;0.50;;;;;;;;;;5029189;28;20045;-59
2021/08/08 02:19:40;;;;;;;1.10;0.50;;;;;;;;;;5022357;28;20798;-59
2021/08/08 02:22:08;;;;;;;1.77;0.38;;;;;;;;;;5028765;28;20471;-58
2021/08/08 02:24:36;;;;;;;0.95;0.30;;;;;;;;;;5029242;28;20144;-57
2021/08/08 02:27:05;;;;;;;1.05;0.73;;;;;;;;;;5031101;28;20071;-58
2021/08/08 02:29:33;;;;;;;0.30;0.30;;;;;;;;;;5030417;28;20144;-58
2021/08/08 02:32:01;;;;;;;0.85;0.30;;;;;;;;;;5029547;28;20119;-57
2021/08/08 02:34:31;;;;;;;0.38;0.30;;;;;;;;;;5027825;28;20794;-59
2021/08/08 02:36:59;;;;;;;0.20;0.20;;;;;;;;;;5029388;28;20084;-59
2021/08/08 02:39:28;;;;;;;0.20;0.20;;;;;;;;;;5028332;28;20204;-58
2021/08/08 02:41:57;;;;;;;3.33;0.40;;;;;;;;;;5029783;28;20072;-59
2021/08/08 02:44:25;;;;;;;0.35;0.30;;;;;;;;;;5029643;28;20064;-58
2021/08/08 02:46:54;;;;;;;0.80;0.30;;;;;;;;;;5030535;28;20485;-58
2021/08/08 02:49:22;;;;;;;0.20;0.20;;;;;;;;;;5030529;28;20088;-58
2021/08/08 02:51:54;;;;;;;2.15;0.30;;;;;;;;;;5029876;28;20049;-59
2021/08/08 02:54:22;;;;;;;0.30;0.30;;;;;;;;;;5029941;28;20132;-59
2021/08/08 02:56:51;;;;;;;0.82;0.30;;;;;;;;;;5029401;28;20136;-60
2021/08/08 02:59:19;;;;;;;0.80;0.40;;;;;;;;;;5029955;28;20104;-58
2021/08/08 03:01:48;;;;;;;0.80;0.30;;;;;;;;;;5029238;28;20128;-59
2021/08/08 03:04:16;;;;;;;0.85;0.40;;;;;;;;;;5028886;28;20207;-58
2021/08/08 03:06:45;;;;;;;0.40;0.22;;;;;;;;;;5028723;28;20108;-58
2021/08/08 03:09:15;;;;;;;0.30;0.20;;;;;;;;;;5029282;28;20165;-58
2021/08/08 03:11:46;;;;;;;0.70;0.20;;;;;;;;;;5029166;28;20512;-59
2021/08/08 03:14:15;;;;;;;0.22;0.20;;;;;;;;;;5029037;28;20119;-58
2021/08/08 03:16:43;;;;;;;0.40;0.30;;;;;;;;;;5029605;28;20053;-58
2021/08/08 03:19:12;;;;;;;0.22;0.22;;;;;;;;;;5030326;28;20136;-58
2021/08/08 03:21:41;;;;;;;1.25;1.15;;;;;;;;;;5023525;28;20129;-59
2021/08/08 03:24:09;;;;;;;0.80;0.40;;;;;;;;;;5025243;28;20121;-58
2021/08/08 03:26:49;;;;;;;0.95;0.20;;;;;;;;;;1672097;28;10022598;-59
2021/08/08 03:29:17;;;;;;;1.10;0.30;;;;;;;;;;3982073;28;10001243;-59
2021/08/08 03:31:46;;;;;;;0.30;0.30;;;;;;;;;;5025636;28;20041;-59
2021/08/08 03:34:14;;;;;;;0.30;0.20;;;;;;;;;;5019174;28;20152;-60
2021/08/08 03:36:42;;;;;;;0.68;0.38;;;;;;;;;;5025467;28;20497;-58
2021/08/08 03:39:11;;;;;;;0.40;0.30;;;;;;;;;;5027173;28;20073;-60
2021/08/08 03:41:40;;;;;;;0.40;0.20;;;;;;;;;;5019388;28;20045;-58
2021/08/08 03:44:09;;;;;;;0.30;0.20;;;;;;;;;;5027273;28;20079;-59
2021/08/08 03:46:38;;;;;;;0.20;0.20;;;;;;;;;;5019924;28;20050;-59
2021/08/08 03:49:06;;;;;;;1.25;0.43;;;;;;;;;;5028553;28;20092;-58
2021/08/08 03:51:34;;;;;;;0.93;0.52;;;;;;;;;;5029516;28;20129;-59
2021/08/08 03:54:02;;;;;;;2.00;0.32;;;;;;;;;;5019810;28;20057;-59
2021/08/08 03:56:31;;;;;;;0.65;0.30;;;;;;;;;;5021560;28;20160;-60
2021/08/08 03:58:59;;;;;;;2.58;0.40;;;;;;;;;;5023498;28;20757;-59
2021/08/08 04:01:28;;;;;;;0.30;0.20;;;;;;;;;;5024547;28;20129;-59
2021/08/08 04:03:57;;;;;;;0.40;0.20;;;;;;;;;;5026845;28;20490;-59
2021/08/08 04:06:26;;;;;;;0.75;0.28;;;;;;;;;;5028657;28;20266;-59
2021/08/08 04:08:54;;;;;;;0.30;0.30;;;;;;;;;;5027997;28;20552;-60
2021/08/08 04:11:22;;;;;;;0.30;0.20;;;;;;;;;;5029434;28;20497;-60
2021/08/08 04:13:50;;;;;;;4.43;0.30;;;;;;;;;;5028728;28;20077;-59
2021/08/08 04:16:19;;;;;;;2.28;0.30;;;;;;;;;;5028579;28;20072;-60
2021/08/08 04:18:48;;;;;;;0.30;0.30;;;;;;;;;;5029151;28;20052;-59
2021/08/08 04:21:17;;;;;;;0.20;0.20;;;;;;;;;;5028990;28;20152;-59
2021/08/08 04:23:45;;;;;;;0.52;0.30;;;;;;;;;;5031817;28;20180;-58
2021/08/08 04:26:14;;;;;;;0.52;0.38;;;;;;;;;;5033895;28;20481;-58
2021/08/08 04:28:42;;;;;;;0.30;0.30;;;;;;;;;;5033241;28;20140;-60
2021/08/08 04:31:11;;;;;;;0.63;0.20;;;;;;;;;;5026385;28;20464;-58
2021/08/08 04:33:39;;;;;;;0.45;0.30;;;;;;;;;;5030565;28;20041;-60
2021/08/08 04:36:09;;;;;;;2.50;0.30;;;;;;;;;;5031787;28;20043;-60
2021/08/08 04:38:37;;;;;;;0.50;0.38;;;;;;;;;;5033250;28;20049;-60
2021/08/08 04:41:06;;;;;;;0.90;0.40;;;;;;;;;;5027562;28;20049;-59
2021/08/08 04:43:34;;;;;;;2.00;0.30;;;;;;;;;;5031753;28;20057;-60
2021/08/08 04:46:02;;;;;;;1.40;0.30;;;;;;;;;;5033274;28;20045;-61
2021/08/08 04:48:30;;;;;;;1.33;0.35;;;;;;;;;;5032525;28;20136;-59
2021/08/08 04:51:01;;;;;;;0.40;0.22;;;;;;;;;;5032652;28;20049;-60
2021/08/08 04:53:31;;;;;;;3.28;0.40;;;;;;;;;;5032139;28;20060;-59
2021/08/08 04:55:59;;;;;;;0.93;0.50;;;;;;;;;;5031786;28;20045;-61
2021/08/08 04:58:27;;;;;;;0.47;0.47;;;;;;;;;;5033090;28;20559;-60
2021/08/08 05:00:56;;;;;;;2.00;0.40;;;;;;;;;;5027259;28;20140;-60
2021/08/08 05:03:24;;;;;;;0.47;0.30;;;;;;;;;;5030397;28;20053;-59
2021/08/08 05:05:53;;;;;;;0.63;0.30;;;;;;;;;;5011725;28;20050;-58
2021/08/08 05:08:21;;;;;;;1.58;0.40;;;;;;;;;;5010815;28;20125;-57
2021/08/08 05:10:52;;;;;;;1.50;0.40;;;;;;;;;;5024524;28;20053;-59
2021/08/08 05:13:20;;;;;;;0.75;0.30;;;;;;;;;;5029369;28;20235;-60
2021/08/08 05:15:50;;;;;;;0.70;0.35;;;;;;;;;;5024262;28;20075;-58
2021/08/08 05:18:19;;;;;;;2.28;0.60;;;;;;;;;;5027546;28;20065;-58
2021/08/08 05:20:47;;;;;;;0.40;0.30;;;;;;;;;;5027641;28;20103;-59
2021/08/08 05:23:15;;;;;;;0.57;0.40;;;;;;;;;;5028737;28;20528;-58
2021/08/08 05:25:44;;;;;;;1.88;0.22;;;;;;;;;;5027026;28;20099;-59
2021/08/08 05:28:13;;;;;;;0.25;0.25;;;;;;;;;;5027735;28;20094;-58
2021/08/08 05:30:41;;;;;;;0.38;0.25;;;;;;;;;;5028437;28;20049;-58
2021/08/08 05:33:10;;;;;;;0.57;0.35;;;;;;;;;;5028747;28;20110;-60
2021/08/08 05:35:38;;;;;;;1.13;0.45;;;;;;;;;;5027879;28;20128;-60
2021/08/08 05:38:06;;;;;;;2.90;0.45;;;;;;;;;;5028374;28;20052;-58
2021/08/08 05:40:35;;;;;;;0.65;0.30;;;;;;;;;;5027847;28;20046;-58
2021/08/08 05:43:03;;;;;;;3.33;0.50;;;;;;;;;;5028751;28;20151;-58
2021/08/08 05:45:33;;;;;;;0.70;0.20;;;;;;;;;;5014855;28;20053;-59
2021/08/08 05:48:01;;;;;;;0.55;0.50;;;;;;;;;;5028362;28;20076;-59
2021/08/08 05:50:29;;;;;;;0.68;0.50;;;;;;;;;;5028155;28;20482;-59
2021/08/08 05:52:58;;;;;;;0.38;0.30;;;;;;;;;;5028508;28;20053;-59
2021/08/08 05:55:26;;;;;;;0.98;0.40;;;;;;;;;;5027349;28;20417;-59
2021/08/08 05:57:54;;;;;;;0.35;0.30;;;;;;;;;;5026568;28;20187;-60
2021/08/08 06:00:22;;;;;;;0.52;0.30;;;;;;;;;;5027916;28;20560;-59
2021/08/08 06:02:52;;;;;;;1.42;0.50;;;;;;;;;;5026812;28;20057;-59
2021/08/08 06:05:20;;;;;;;0.75;0.40;;;;;;;;;;5021674;28;20083;-58
2021/08/08 06:07:49;;;;;;;0.45;0.30;;;;;;;;;;5027101;28;20173;-59
2021/08/08 06:10:18;;;;;;;3.15;0.40;;;;;;;;;;5010132;28;20490;-59
2021/08/08 06:12:46;;;;;;;1.05;0.50;;;;;;;;;;5028277;28;20152;-60
2021/08/08 06:15:15;;;;;;;0.60;0.50;;;;;;;;;;5027085;28;20561;-58
2021/08/08 06:17:43;;;;;;;1.33;0.40;;;;;;;;;;5027055;28;20046;-58
2021/08/08 06:20:12;;;;;;;1.02;0.25;;;;;;;;;;5022261;28;20124;-59
2021/08/08 06:22:41;;;;;;;2.60;0.50;;;;;;;;;;5028291;28;20136;-58
2021/08/08 06:25:09;;;;;;;0.40;0.30;;;;;;;;;;5026952;28;20515;-58
2021/08/08 06:27:38;;;;;;;3.60;0.30;;;;;;;;;;5027896;28;20460;-59
2021/08/08 06:30:07;;;;;;;0.68;0.50;;;;;;;;;;5026809;28;20751;-58
2021/08/08 06:32:35;;;;;;;0.63;0.40;;;;;;;;;;5022991;28;20540;-58
2021/08/08 06:35:03;;;;;;;0.95;0.50;;;;;;;;;;5026854;28;20148;-58
2021/08/08 06:37:33;;;;;;;1.58;0.20;;;;;;;;;;5025747;28;20050;-60
2021/08/08 06:40:01;;;;;;;0.75;0.45;;;;;;;;;;5021380;28;20050;-58
2021/08/08 06:42:30;;;;;;;0.60;0.38;;;;;;;;;;5024282;28;20386;-58
2021/08/08 06:44:58;;;;;;;0.63;0.30;;;;;;;;;;5026374;28;20144;-59
2021/08/08 06:47:31;;;;;;;0.22;0.20;;;;;;;;;;5024729;28;20057;-58
2021/08/08 06:49:59;;;;;;;0.90;0.43;;;;;;;;;;5026780;28;20057;-58
2021/08/08 06:52:28;;;;;;;0.30;0.20;;;;;;;;;;5026551;28;20132;-59
2021/08/08 06:54:58;;;;;;;0.32;0.25;;;;;;;;;;5026406;28;20059;-58
2021/08/08 06:57:26;;;;;;;1.00;0.30;;;;;;;;;;5027178;28;20139;-58
2021/08/08 06:59:55;;;;;;;1.33;0.35;;;;;;;;;;5026179;28;20616;-58
2021/08/08 07:02:23;;;;;;;0.40;0.30;;;;;;;;;;5026046;28;20072;-59
2021/08/08 07:04:52;;;;;;;0.50;0.38;;;;;;;;;;5026058;28;20491;-58
2021/08/08 07:07:21;;;;;;;0.45;0.43;;;;;;;;;;5026478;28;20069;-59
2021/08/08 07:09:49;;;;;;;1.92;0.47;;;;;;;;;;5025800;28;20132;-58
2021/08/08 07:12:19;;;;;;;0.40;0.40;;;;;;;;;;5027296;28;20564;-58
2021/08/08 07:14:49;;;;;;;0.70;0.40;;;;;;;;;;5025614;28;20501;-58
2021/08/08 07:17:18;;;;;;;0.75;0.45;;;;;;;;;;5026301;28;20130;-58
2021/08/08 07:19:46;;;;;;;0.60;0.40;;;;;;;;;;5024851;28;20064;-59
2021/08/08 07:22:15;;;;;;;1.35;0.40;;;;;;;;;;5025983;28;20097;-58
2021/08/08 07:24:44;;;;;;;0.40;0.40;;;;;;;;;;5024773;28;20124;-59
2021/08/08 07:27:13;;;;;;;1.23;0.52;;;;;;;;;;5017876;28;20049;-58
2021/08/08 07:29:43;;;;;;;0.95;0.47;;;;;;;;;;5026441;28;20049;-59
2021/08/08 07:32:11;;;;;;;1.25;0.30;;;;;;;;;;5025818;28;20456;-59
2021/08/08 07:34:39;;;;;;;0.73;0.30;;;;;;;;;;5026670;28;20052;-59
2021/08/08 07:37:08;;;;;;;0.77;0.52;;;;;;;;;;5026956;28;20093;-58
2021/08/08 07:39:36;;;;;;;1.05;0.47;;;;;;;;;;5026636;28;20099;-58
2021/08/08 07:42:05;;;;;;;1.85;0.60;;;;;;;;;;5023604;28;20147;-58
2021/08/08 07:44:33;;;;;;;1.55;0.75;;;;;;;;;;5016326;28;20132;-59
2021/08/08 07:47:03;;;;;;;0.60;0.45;;;;;;;;;;5026874;28;20053;-58
2021/08/08 07:49:32;;;;;;;1.00;0.32;;;;;;;;;;5027045;28;20511;-59
2021/08/08 07:52:00;;;;;;;0.80;0.55;;;;;;;;;;5027568;28;20077;-59
2021/08/08 07:54:29;;;;;;;1.42;0.50;;;;;;;;;;5026282;28;20173;-59
2021/08/08 07:56:57;;;;;;;1.92;0.50;;;;;;;;;;5026971;28;20045;-59
2021/08/08 07:59:26;;;;;;;1.05;0.60;;;;;;;;;;5026336;28;20069;-59
2021/08/08 08:01:54;;;;;;;0.60;0.40;;;;;;;;;;5024786;28;20503;-59
2021/08/08 08:04:25;;;;;;;1.00;0.30;;;;;;;;;;5020020;28;20049;-59
2021/08/08 08:06:54;;;;;;;1.00;0.73;;;;;;;;;;5026171;28;20799;-58
2021/08/08 08:09:23;;;;;;;1.13;0.50;;;;;;;;;;5026558;28;20053;-59
2021/08/08 08:11:51;;;;;;;1.52;0.40;;;;;;;;;;5026266;28;20076;-59
2021/08/08 08:14:20;;;;;;;0.73;0.50;;;;;;;;;;5025176;28;20168;-59
2021/08/08 08:16:48;;;;;;;1.80;0.77;;;;;;;;;;5025622;28;20421;-60
2021/08/08 08:19:16;;;;;;;1.02;0.43;;;;;;;;;;5026231;28;20100;-60
2021/08/08 08:21:47;;;;;;;1.17;0.45;;;;;;;;;;5026686;28;20083;-58
2021/08/08 08:24:16;;;;;;;0.98;0.60;;;;;;;;;;5007177;28;20045;-58
2021/08/08 08:26:45;;;;;;;0.70;0.60;;;;;;;;;;5019475;28;20046;-58
2021/08/08 08:29:14;;;;;;;1.77;0.50;;;;;;;;;;5022951;28;20627;-58
2021/08/08 08:31:42;;;;;;;0.45;0.40;;;;;;;;;;5019922;28;20183;-59
2021/08/08 08:34:11;;;;;;;1.42;0.70;;;;;;;;;;5015436;28;20505;-58
2021/08/08 08:36:39;;;;;;;3.50;0.50;;;;;;;;;;5023194;28;20053;-58
2021/08/08 08:39:09;;;;;;;3.72;0.60;;;;;;;;;;5018200;28;20136;-59
2021/08/08 08:41:37;;;;;;;0.43;0.40;;;;;;;;;;5013809;28;20104;-59
2021/08/08 08:44:06;;;;;;;0.77;0.45;;;;;;;;;;5012812;28;20061;-58
2021/08/08 08:46:35;;;;;;;1.08;0.40;;;;;;;;;;5015719;28;20474;-59
2021/08/08 08:49:04;;;;;;;0.68;0.40;;;;;;;;;;5015250;28;20525;-58
2021/08/08 08:51:36;;;;;;;1.02;0.45;;;;;;;;;;5018366;28;20643;-58
2021/08/08 08:54:05;;;;;;;1.55;0.47;;;;;;;;;;5022542;28;20468;-57
2021/08/08 08:56:35;;;;;;;0.47;0.30;;;;;;;;;;5024892;28;20091;-59
2021/08/08 08:59:03;;;;;;;0.73;0.50;;;;;;;;;;5017515;28;20076;-58
2021/08/08 09:01:31;;;;;;;2.35;0.47;;;;;;;;;;5022951;28;20521;-59
2021/08/08 09:04:00;;;;;;;0.38;0.30;;;;;;;;;;5006440;28;20504;-59
2021/08/08 09:06:28;;;;;;;0.40;0.40;;;;;;;;;;5021912;28;20466;-58
2021/08/08 09:08:57;;;;;;;1.27;0.63;;;;;;;;;;5024470;28;20049;-59
2021/08/08 09:11:25;;;;;;;3.38;0.60;;;;;;;;;;5026206;28;20045;-59
2021/08/08 09:13:56;;;;;;;0.75;0.40;;;;;;;;;;5022201;28;20054;-56
2021/08/08 09:16:25;;;;;;;0.60;0.47;;;;;;;;;;5025282;28;20053;-59
2021/08/08 09:18:54;;;;;;;1.90;0.40;;;;;;;;;;5026737;28;20045;-59
2021/08/08 09:21:24;;;;;;;1.40;0.50;;;;;;;;;;5021555;28;20041;-59
2021/08/08 09:23:56;;;;;;;0.70;0.30;;;;;;;;;;5022755;28;20536;-58
2021/08/08 09:26:29;;;;;;;0.43;0.30;;;;;;;;;;5025059;28;20076;-59
2021/08/08 09:29:09;;;;;;;0.70;0.40;;;;;;;;;;5027248;28;20107;-59
2021/08/08 09:31:44;;;;;;;0.50;0.45;;;;;;;;;;5018003;28;20658;-64
2021/08/08 09:34:23;;;;;;;1.27;0.52;;;;;;;;;;5023746;28;21262;-64
2021/08/08 09:36:52;;;;;;;0.40;0.30;;;;;;;;;;5028427;28;20172;-63
2021/08/08 09:39:26;;;;;;;1.48;0.32;;;;;;;;;;5024145;28;20081;-64
2021/08/08 09:42:04;;;;;;;1.02;0.40;;;;;;;;;;5028536;28;20137;-62
2021/08/08 09:44:34;;;;;;;1.27;0.30;;;;;;;;;;5028516;28;20148;-62
2021/08/08 09:47:02;;;;;;;0.98;0.55;;;;;;;;;;5022547;28;20133;-62
2021/08/08 09:49:31;;;;;;;0.82;0.50;;;;;;;;;;5029860;28;20492;-62
2021/08/08 09:51:59;;;;;;;0.30;0.30;;;;;;;;;;5027322;28;20529;-62
2021/08/08 09:54:36;;;;;;;0.93;0.50;;;;;;;;;;5027430;28;20112;-62
2021/08/08 09:57:05;;;;;;;1.35;0.47;;;;;;;;;;5022109;28;20470;-62
2021/08/08 09:59:46;;;;;;;0.68;0.50;;;;;;;;;;5021208;28;20073;-61
2021/08/08 10:02:18;;;;;;;3.22;0.50;;;;;;;;;;5013660;28;20041;-62
2021/08/08 10:04:47;;;;;;;2.25;0.50;;;;;;;;;;5017242;28;20492;-61
2021/08/08 10:07:17;;;;;;;1.17;0.35;;;;;;;;;;5029155;28;20169;-62
2021/08/08 10:09:46;;;;;;;0.50;0.40;;;;;;;;;;5030128;28;20440;-61
2021/08/08 10:12:20;;;;;;;2.50;0.50;;;;;;;;;;5025615;28;20405;-61
2021/08/08 10:14:53;;;;;;;0.63;0.30;;;;;;;;;;5025016;28;20156;-62
2021/08/08 10:17:21;;;;;;;1.00;0.30;;;;;;;;;;5026498;28;20137;-62
2021/08/08 10:19:53;;;;;;;2.92;0.40;;;;;;;;;;5022418;28;20111;-63
2021/08/08 10:22:24;;;;;;;0.75;0.32;;;;;;;;;;5022003;28;20056;-61
2021/08/08 10:24:56;;;;;;;0.68;0.30;;;;;;;;;;5026996;28;20354;-62
2021/08/08 10:27:25;;;;;;;1.15;0.43;;;;;;;;;;5020830;28;20065;-62
2021/08/08 10:29:56;;;;;;;0.82;0.47;;;;;;;;;;5021571;28;20462;-62
2021/08/08 10:32:25;;;;;;;0.93;0.35;;;;;;;;;;5029209;28;20079;-62
2021/08/08 10:34:54;;;;;;;1.60;0.55;;;;;;;;;;5023545;28;20485;-62
2021/08/08 10:37:23;;;;;;;0.80;0.45;;;;;;;;;;5015804;28;20148;-62
2021/08/08 10:39:52;;;;;;;0.85;0.40;;;;;;;;;;5024352;28;20041;-63
2021/08/08 10:42:22;;;;;;;2.00;0.30;;;;;;;;;;5029125;28;20136;-61
2021/08/08 10:44:51;;;;;;;0.82;0.40;;;;;;;;;;5014848;28;20132;-61
2021/08/08 10:47:28;;;;;;;4.85;0.40;;;;;;;;;;5020694;28;20053;-63
2021/08/08 10:50:08;;;;;;;0.65;0.50;;;;;;;;;;5017168;28;20474;-61
2021/08/08 10:52:40;;;;;;;0.75;0.52;;;;;;;;;;5015646;28;20064;-61
2021/08/08 10:55:10;;;;;;;0.68;0.38;;;;;;;;;;5024082;28;20077;-62
2021/08/08 10:57:43;;;;;;;0.38;0.30;;;;;;;;;;5025755;28;20090;-63
2021/08/08 11:00:14;;;;;;;1.73;0.38;;;;;;;;;;5018934;28;20053;-62
2021/08/08 11:02:45;;;;;;;1.10;0.60;;;;;;;;;;5025173;28;20056;-63
2021/08/08 11:05:14;;;;;;;1.42;0.28;;;;;;;;;;5017919;28;20042;-62
2021/08/08 11:07:43;;;;;;;0.57;0.30;;;;;;;;;;5028887;28;20135;-60
2021/08/08 11:10:12;;;;;;;0.70;0.32;;;;;;;;;;5018035;28;20050;-61
2021/08/08 11:12:41;;;;;;;0.52;0.43;;;;;;;;;;5026546;28;20201;-62
2021/08/08 11:15:10;;;;;;;1.30;0.50;;;;;;;;;;5025029;28;20111;-61
2021/08/08 11:17:42;;;;;;;1.55;0.32;;;;;;;;;;5023292;28;20049;-62
2021/08/08 11:20:12;;;;;;;1.67;0.30;;;;;;;;;;5021592;28;20053;-61
2021/08/08 11:22:40;;;;;;;0.57;0.40;;;;;;;;;;5022197;28;20137;-62
2021/08/08 11:25:10;;;;;;;0.93;0.32;;;;;;;;;;5024213;28;20045;-61
2021/08/08 11:27:39;;;;;;;0.73;0.40;;;;;;;;;;5023859;28;20077;-62
2021/08/08 11:30:09;;;;;;;1.08;0.40;;;;;;;;;;5025249;28;20501;-62
2021/08/08 11:32:38;;;;;;;0.52;0.30;;;;;;;;;;5025379;28;20049;-63
2021/08/08 11:35:07;;;;;;;1.00;0.68;;;;;;;;;;5023111;28;20046;-63
2021/08/08 11:37:38;;;;;;;0.50;0.30;;;;;;;;;;5022318;28;20573;-63
2021/08/08 11:40:17;;;;;;;0.93;0.28;;;;;;;;;;5029324;28;20068;-61
2021/08/08 11:42:47;;;;;;;0.68;0.32;;;;;;;;;;5029140;28;20054;-62
2021/08/08 11:45:16;;;;;;;1.23;0.60;;;;;;;;;;5024415;28;20092;-63
2021/08/08 11:47:44;;;;;;;0.93;0.30;;;;;;;;;;5024276;28;20156;-62
2021/08/08 11:50:12;;;;;;;1.65;0.40;;;;;;;;;;5028468;28;20045;-62
2021/08/08 11:52:42;;;;;;;0.77;0.30;;;;;;;;;;5025756;28;20077;-62
2021/08/08 11:55:12;;;;;;;1.98;0.40;;;;;;;;;;5021822;28;20042;-62
2021/08/08 11:57:41;;;;;;;5.70;0.30;;;;;;;;;;5025966;28;20053;-62
2021/08/08 12:00:09;;;;;;;1.25;0.40;;;;;;;;;;5021544;28;20124;-62
2021/08/08 12:02:38;;;;;;;0.40;0.40;;;;;;;;;;5027181;28;20622;-62
2021/08/08 12:05:07;;;;;;;0.55;0.50;;;;;;;;;;5020307;28;20050;-62
2021/08/08 12:07:36;;;;;;;0.45;0.30;;;;;;;;;;5020748;28;20077;-61
2021/08/08 12:10:06;;;;;;;0.80;0.47;;;;;;;;;;5026377;28;20105;-63
2021/08/08 12:12:35;;;;;;;0.75;0.50;;;;;;;;;;5027504;28;20045;-61
2021/08/08 12:15:04;;;;;;;2.58;0.40;;;;;;;;;;5025905;28;20481;-62
2021/08/08 12:17:32;;;;;;;0.75;0.47;;;;;;;;;;5026249;28;20050;-62
2021/08/08 12:20:09;;;;;;;2.05;0.40;;;;;;;;;;5021747;28;20115;-61
2021/08/08 12:22:38;;;;;;;0.70;0.40;;;;;;;;;;5030686;28;20096;-62
2021/08/08 12:25:09;;;;;;;2.22;0.40;;;;;;;;;;5023165;28;20042;-62
2021/08/08 12:27:39;;;;;;;3.45;0.50;;;;;;;;;;5019408;28;20077;-62
2021/08/08 12:30:09;;;;;;;3.22;0.38;;;;;;;;;;5020578;28;20520;-62
2021/08/08 12:32:40;;;;;;;0.47;0.32;;;;;;;;;;5030536;28;20529;-61
2021/08/08 12:35:09;;;;;;;0.77;0.43;;;;;;;;;;5020039;28;20049;-61
2021/08/08 12:37:38;;;;;;;1.60;0.60;;;;;;;;;;5029302;28;20080;-62
2021/08/08 12:40:12;;;;;;;1.50;0.40;;;;;;;;;;5033381;28;20081;-61
2021/08/08 12:42:42;;;;;;;0.90;0.40;;;;;;;;;;5019145;28;20983;-63
2021/08/08 12:45:12;;;;;;;0.70;0.52;;;;;;;;;;5025393;28;20085;-62
2021/08/08 12:47:45;;;;;;;1.02;0.40;;;;;;;;;;5025848;28;20045;-61
2021/08/08 12:50:15;;;;;;;0.75;0.32;;;;;;;;;;5023974;28;20378;-62
2021/08/08 12:52:43;;;;;;;0.80;0.40;;;;;;;;;;5022604;28;20056;-61
2021/08/08 12:55:13;;;;;;;1.33;0.45;;;;;;;;;;5030270;28;20140;-62
2021/08/08 12:57:41;;;;;;;1.77;0.50;;;;;;;;;;5032252;28;20132;-62
2021/08/08 13:00:10;;;;;;;1.02;0.57;;;;;;;;;;5017995;28;20046;-62
2021/08/08 13:02:39;;;;;;;2.83;0.50;;;;;;;;;;5028374;28;20121;-61
2021/08/08 13:05:08;;;;;;;1.90;0.50;;;;;;;;;;5030677;28;20065;-62
2021/08/08 13:07:36;;;;;;;2.30;0.60;;;;;;;;;;5032056;28;20042;-61
2021/08/08 13:10:05;;;;;;;0.80;0.40;;;;;;;;;;5030030;28;20099;-62
2021/08/08 13:12:39;;;;;;;2.17;0.60;;;;;;;;;;5027007;28;20077;-61
2021/08/08 13:15:09;;;;;;;1.42;0.40;;;;;;;;;;5019407;28;20056;-62
2021/08/08 13:17:38;;;;;;;2.75;0.45;;;;;;;;;;5026624;28;20076;-61
2021/08/08 13:20:07;;;;;;;4.43;0.38;;;;;;;;;;5026965;28;20046;-62
2021/08/08 13:22:35;;;;;;;1.85;0.52;;;;;;;;;;5032546;28;20474;-64
2021/08/08 13:25:04;;;;;;;2.33;0.50;;;;;;;;;;5026863;28;20084;-62
2021/08/08 13:27:32;;;;;;;2.65;0.63;;;;;;;;;;5030086;28;20061;-62
2021/08/08 13:30:02;;;;;;;1.73;0.40;;;;;;;;;;5026449;28;20052;-62
2021/08/08 13:32:31;;;;;;;0.75;0.50;;;;;;;;;;5029168;28;20076;-62
2021/08/08 13:34:59;;;;;;;0.50;0.30;;;;;;;;;;5030941;28;20112;-63
2021/08/08 13:37:27;;;;;;;0.73;0.40;;;;;;;;;;5032298;28;20084;-62
2021/08/08 13:39:56;;;;;;;0.63;0.30;;;;;;;;;;5031162;28;20100;-62
2021/08/08 13:42:24;;;;;;;0.65;0.32;;;;;;;;;;5030231;28;20469;-62
2021/08/08 13:44:52;;;;;;;0.50;0.40;;;;;;;;;;5029884;28;20117;-62
2021/08/08 13:47:22;;;;;;;1.85;0.52;;;;;;;;;;5030078;28;20070;-62
2021/08/08 13:49:51;;;;;;;4.15;0.70;;;;;;;;;;5026678;28;20132;-63
2021/08/08 13:52:19;;;;;;;2.20;0.50;;;;;;;;;;5026801;28;20104;-62
2021/08/08 13:54:48;;;;;;;0.90;0.50;;;;;;;;;;5031016;28;20053;-62
2021/08/08 13:57:16;;;;;;;1.02;0.52;;;;;;;;;;5026000;28;20049;-62
2021/08/08 13:59:45;;;;;;;1.55;0.60;;;;;;;;;;5031439;28;20124;-62
2021/08/08 14:02:13;;;;;;;1.88;0.55;;;;;;;;;;5028760;28;20124;-62
2021/08/08 14:04:43;;;;;;;1.88;0.55;;;;;;;;;;5028256;28;20060;-62
2021/08/08 14:07:12;;;;;;;5.22;0.82;;;;;;;;;;5029476;28;20567;-62
2021/08/08 14:09:40;;;;;;;0.52;0.32;;;;;;;;;;5026134;28;20050;-64
2021/08/08 14:12:09;;;;;;;1.10;0.60;;;;;;;;;;5027507;28;20089;-62
2021/08/08 14:14:42;;;;;;;0.80;0.60;;;;;;;;;;5025149;28;20077;-62
2021/08/08 14:17:11;;;;;;;1.13;0.63;;;;;;;;;;5028709;28;20393;-62
2021/08/08 14:19:40;;;;;;;3.10;0.50;;;;;;;;;;5016046;28;20123;-62
2021/08/08 14:22:09;;;;;;;0.55;0.40;;;;;;;;;;5016747;28;20076;-63
2021/08/08 14:24:38;;;;;;;1.02;0.50;;;;;;;;;;5018754;28;20411;-62
2021/08/08 14:27:06;;;;;;;3.65;0.57;;;;;;;;;;5028170;28;20133;-61
2021/08/08 14:29:34;;;;;;;0.52;0.50;;;;;;;;;;5031691;28;20054;-63
2021/08/08 14:32:03;;;;;;;1.60;0.55;;;;;;;;;;5030945;28;20045;-62
2021/08/08 14:34:31;;;;;;;3.25;0.43;;;;;;;;;;5032067;28;20065;-61
2021/08/08 14:36:59;;;;;;;1.73;0.50;;;;;;;;;;5023697;28;20132;-61
2021/08/08 14:39:29;;;;;;;1.27;0.65;;;;;;;;;;5030140;28;20563;-62
2021/08/08 14:41:58;;;;;;;1.15;0.60;;;;;;;;;;5027025;28;20077;-62
2021/08/08 14:44:26;;;;;;;1.38;0.68;;;;;;;;;;5030858;28;20505;-62
2021/08/08 14:46:55;;;;;;;3.22;0.63;;;;;;;;;;5030408;28;20612;-63
2021/08/08 14:49:23;;;;;;;1.63;0.63;;;;;;;;;;5027456;28;20109;-61
2021/08/08 14:51:52;;;;;;;2.83;0.90;;;;;;;;;;5027850;28;20105;-62
2021/08/08 14:54:20;;;;;;;3.95;1.10;;;;;;;;;;5025846;28;20053;-62